Banbury, United Kingdom
Current Conditions -  °F | °C
As of 2:20 PM on Sunday 23 Nov 2014 (Local Time) from EGTK Reporting Station
Few Clouds Few Clouds  
Wind Chill: 46°   Ceiling: Unl
Heat Index: 46°   Visibility: 6mi
Dew Point: 46°   Wind: 3mph
Humidity: 100%   Direction: 330°NNW
Pressure: 30.03"   Gusts: NA
Location:  52.06°N, 1.34°W
Report Text: EGTK 231420Z 33003KT 9999 FEW025 08/08 Q1017
Loading
Personal Weather Stations






























Interactive Weather Map New forecast layout! Learn more

10-Day Weather Forecast

Advertisements
Track Severe Weather on mobile